Time;durP1;ratioP1;P1;durP2;ratioP2;P2;SDS_P1;SDS_P2;PMS_P1;PMS_P2;Temp;Humidity;BMP_temperature;BMP_pressure;BME280_temperature;BME280_humidity;BME280_pressure;Samples;Min_cycle;Max_cycle;Signal;HPM_P1;HPM_P2
2023/02/24 00:02:23;;;;;;;41.00;23.77;;;;;;;;;;5010190;28;20033;-56
2023/02/24 00:04:50;;;;;;;31.05;23.45;;;;;;;;;;4991943;28;20398;-57
2023/02/24 00:07:16;;;;;;;44.00;24.42;;;;;;;;;;5009429;28;20113;-56
2023/02/24 00:09:47;;;;;;;36.63;22.33;;;;;;;;;;5009942;28;20502;-55
2023/02/24 00:12:15;;;;;;;39.25;22.55;;;;;;;;;;5010194;28;20021;-57
2023/02/24 00:14:44;;;;;;;35.17;23.02;;;;;;;;;;5009449;28;20029;-52
2023/02/24 00:17:13;;;;;;;37.72;22.88;;;;;;;;;;5010003;28;20052;-57
2023/02/24 00:19:39;;;;;;;33.58;24.80;;;;;;;;;;5009511;28;20037;-55
2023/02/24 00:22:06;;;;;;;36.35;23.23;;;;;;;;;;5009779;28;20375;-57
2023/02/24 00:24:32;;;;;;;40.33;25.45;;;;;;;;;;5009072;28;20037;-54
2023/02/24 00:27:00;;;;;;;34.08;21.73;;;;;;;;;;5009334;28;20506;-59
2023/02/24 00:29:27;;;;;;;26.90;21.33;;;;;;;;;;5015281;28;20034;-58
2023/02/24 00:31:55;;;;;;;35.63;21.40;;;;;;;;;;5030814;28;20075;-57
2023/02/24 00:34:22;;;;;;;32.57;21.87;;;;;;;;;;5030801;28;20853;-57
2023/02/24 00:36:48;;;;;;;32.03;21.63;;;;;;;;;;5072420;22;20311;-61
2023/02/24 00:39:14;;;;;;;32.03;22.10;;;;;;;;;;5052151;28;20032;-59
2023/02/24 00:41:41;;;;;;;34.00;23.55;;;;;;;;;;5052117;28;20028;-62
2023/02/24 00:44:09;;;;;;;30.27;21.00;;;;;;;;;;5033775;28;20389;-60
2023/02/24 00:46:35;;;;;;;40.95;24.67;;;;;;;;;;5034657;28;20055;-61
2023/02/24 00:49:06;;;;;;;30.20;21.98;;;;;;;;;;5052254;28;20049;-61
2023/02/24 00:51:37;;;;;;;33.95;21.85;;;;;;;;;;5034563;28;20124;-62
2023/02/24 00:54:04;;;;;;;38.45;23.17;;;;;;;;;;5051961;28;20047;-61
2023/02/24 00:56:30;;;;;;;35.15;22.10;;;;;;;;;;5052551;28;20027;-62
2023/02/24 00:58:57;;;;;;;33.00;22.33;;;;;;;;;;5034799;28;20029;-62
2023/02/24 01:01:25;;;;;;;33.22;22.15;;;;;;;;;;5052478;28;20103;-62
2023/02/24 01:03:53;;;;;;;38.10;23.63;;;;;;;;;;5052051;28;20429;-62
2023/02/24 01:06:20;;;;;;;40.47;22.88;;;;;;;;;;5034769;28;20029;-61
2023/02/24 01:08:50;;;;;;;36.90;22.30;;;;;;;;;;5052129;28;20036;-62
2023/02/24 01:14:09;;;;;;;33.80;22.60;;;;;;;;;;5052121;28;20149;-61
2023/02/24 01:16:35;;;;;;;33.95;22.50;;;;;;;;;;5052283;28;20641;-62
2023/02/24 01:19:01;;;;;;;35.13;21.27;;;;;;;;;;5034792;28;20082;-61
2023/02/24 01:21:28;;;;;;;33.75;22.88;;;;;;;;;;5052554;28;20493;-62
2023/02/24 01:23:54;;;;;;;30.00;21.77;;;;;;;;;;5051460;28;20094;-59
2023/02/24 01:26:21;;;;;;;36.80;22.30;;;;;;;;;;5052061;28;20436;-59
2023/02/24 01:28:47;;;;;;;34.72;21.73;;;;;;;;;;5034416;28;20032;-62
2023/02/24 01:31:19;;;;;;;36.20;21.98;;;;;;;;;;5034232;28;20040;-59
2023/02/24 01:33:45;;;;;;;32.50;21.20;;;;;;;;;;5033494;28;20019;-62
2023/02/24 01:36:11;;;;;;;29.52;21.35;;;;;;;;;;5051862;28;20028;-61
2023/02/24 01:38:39;;;;;;;30.42;20.17;;;;;;;;;;5051881;28;20099;-61
2023/02/24 01:41:05;;;;;;;33.17;20.57;;;;;;;;;;5052119;28;20026;-62
2023/02/24 01:43:32;;;;;;;34.28;21.33;;;;;;;;;;5051229;28;20036;-62
2023/02/24 01:45:58;;;;;;;26.60;20.20;;;;;;;;;;5051754;28;20037;-62
2023/02/24 01:48:24;;;;;;;37.40;21.38;;;;;;;;;;5033915;28;20029;-63
2023/02/24 01:50:51;;;;;;;29.92;19.73;;;;;;;;;;5051714;28;20025;-62
2023/02/24 01:53:17;;;;;;;29.73;19.33;;;;;;;;;;5050888;28;20059;-62
2023/02/24 01:55:48;;;;;;;36.72;21.42;;;;;;;;;;5051485;28;20107;-61
2023/02/24 01:58:25;;;;;;;29.77;19.48;;;;;;;;;;5051709;28;20032;-62
2023/02/24 02:00:52;;;;;;;29.25;19.42;;;;;;;;;;5051533;28;20052;-62
2023/02/24 02:03:23;;;;;;;25.67;18.50;;;;;;;;;;5050792;28;20029;-62
2023/02/24 02:05:50;;;;;;;31.05;18.73;;;;;;;;;;5033464;28;20029;-62
2023/02/24 02:08:17;;;;;;;32.72;19.23;;;;;;;;;;5051619;28;20028;-61
2023/02/24 02:10:44;;;;;;;32.67;19.92;;;;;;;;;;5051436;28;20043;-61
2023/02/24 02:13:12;;;;;;;26.83;19.02;;;;;;;;;;5050665;28;20017;-62
2023/02/24 02:15:43;;;;;;;34.40;18.98;;;;;;;;;;5051474;28;20026;-63
2023/02/24 02:18:15;;;;;;;27.92;18.80;;;;;;;;;;5033602;28;20028;-63
2023/02/24 02:20:57;;;;;;;30.95;18.83;;;;;;;;;;5033585;28;20029;-63
2023/02/24 02:23:41;;;;;;;28.10;19.35;;;;;;;;;;5053764;28;20075;-62
2023/02/24 02:26:08;;;;;;;28.27;19.52;;;;;;;;;;5037679;28;20055;-62
2023/02/24 02:28:52;;;;;;;31.65;18.67;;;;;;;;;;5055397;28;20025;-62
2023/02/24 02:31:31;;;;;;;31.25;20.13;;;;;;;;;;5037756;28;20500;-62
2023/02/24 02:34:16;;;;;;;26.05;18.15;;;;;;;;;;5054794;28;20502;-62
2023/02/24 02:36:42;;;;;;;28.73;20.23;;;;;;;;;;5037476;28;20037;-61
2023/02/24 02:39:14;;;;;;;31.88;19.20;;;;;;;;;;5055454;28;20033;-62
2023/02/24 02:41:49;;;;;;;27.20;19.33;;;;;;;;;;5055655;28;20039;-61
2023/02/24 02:44:18;;;;;;;33.13;20.42;;;;;;;;;;5036774;28;20021;-61
2023/02/24 02:46:47;;;;;;;24.60;18.40;;;;;;;;;;5037561;28;20029;-61
2023/02/24 02:49:20;;;;;;;29.75;19.00;;;;;;;;;;5055006;28;20401;-62
2023/02/24 02:51:53;;;;;;;26.80;17.98;;;;;;;;;;5037509;28;20633;-62
2023/02/24 02:54:22;;;;;;;27.80;19.10;;;;;;;;;;5036684;28;20086;-61
2023/02/24 02:56:51;;;;;;;27.45;19.50;;;;;;;;;;5055154;28;20021;-61
2023/02/24 02:59:22;;;;;;;31.73;20.33;;;;;;;;;;5037217;28;20489;-63
2023/02/24 03:01:48;;;;;;;29.52;20.27;;;;;;;;;;5055044;28;20433;-61
2023/02/24 03:04:16;;;;;;;32.45;20.40;;;;;;;;;;5054377;28;20021;-61
2023/02/24 03:07:08;;;;;;;27.40;21.27;;;;;;;;;;5037150;28;20021;-62
2023/02/24 03:09:37;;;;;;;34.47;19.73;;;;;;;;;;5050566;28;20033;-62
2023/02/24 03:12:08;;;;;;;24.92;19.55;;;;;;;;;;5055219;28;20603;-62
2023/02/24 03:14:37;;;;;;;32.90;21.70;;;;;;;;;;5054424;28;20116;-60
2023/02/24 03:17:08;;;;;;;26.65;19.65;;;;;;;;;;5036964;28;20028;-61
2023/02/24 03:19:37;;;;;;;25.73;20.38;;;;;;;;;;5037124;28;20032;-61
2023/02/24 03:22:11;;;;;;;30.00;20.90;;;;;;;;;;5054720;28;20645;-61
2023/02/24 03:24:38;;;;;;;29.98;22.13;;;;;;;;;;5054006;28;20104;-61
2023/02/24 03:27:24;;;;;;;30.30;21.48;;;;;;;;;;5036581;28;20053;-61
2023/02/24 03:29:51;;;;;;;28.38;20.10;;;;;;;;;;5054270;28;20044;-62
2023/02/24 03:32:20;;;;;;;32.58;20.90;;;;;;;;;;5054587;28;20073;-63
2023/02/24 03:34:54;;;;;;;33.47;20.27;;;;;;;;;;5053238;28;20048;-63
2023/02/24 03:37:26;;;;;;;30.65;19.15;;;;;;;;;;5054716;28;20041;-62
2023/02/24 03:39:53;;;;;;;37.35;20.98;;;;;;;;;;5036560;28;20159;-63
2023/02/24 03:42:20;;;;;;;28.75;19.88;;;;;;;;;;5054401;28;20025;-62
2023/02/24 03:44:46;;;;;;;24.95;18.88;;;;;;;;;;5053575;28;20369;-61
2023/02/24 03:47:19;;;;;;;28.55;19.75;;;;;;;;;;5054107;28;20481;-62
2023/02/24 03:49:45;;;;;;;24.90;18.58;;;;;;;;;;5054262;28;20021;-60
2023/02/24 03:52:31;;;;;;;33.90;20.10;;;;;;;;;;5054142;28;20056;-61
2023/02/24 03:55:00;;;;;;;33.25;19.25;;;;;;;;;;5053446;28;20452;-61
2023/02/24 03:57:53;;;;;;;30.98;19.35;;;;;;;;;;5053756;28;20021;-62
2023/02/24 04:00:34;;;;;;;30.73;19.35;;;;;;;;;;5054072;28;20031;-61
2023/02/24 04:03:09;;;;;;;31.08;21.77;;;;;;;;;;5035907;28;20056;-63
2023/02/24 04:05:40;;;;;;;30.15;20.15;;;;;;;;;;5053822;28;20025;-61
2023/02/24 04:08:07;;;;;;;40.95;21.52;;;;;;;;;;5036144;28;20370;-59
2023/02/24 04:10:37;;;;;;;39.25;20.58;;;;;;;;;;5053695;28;20078;-62
2023/02/24 04:13:17;;;;;;;32.20;21.65;;;;;;;;;;5053197;28;20544;-61
2023/02/24 04:15:44;;;;;;;32.38;20.10;;;;;;;;;;5053569;28;20017;-62
2023/02/24 04:18:17;;;;;;;25.65;20.00;;;;;;;;;;5035752;28;20041;-62
2023/02/24 04:20:44;;;;;;;30.25;19.77;;;;;;;;;;5053500;28;20028;-62
2023/02/24 04:23:13;;;;;;;26.70;20.90;;;;;;;;;;5034586;28;20124;-62
2023/02/24 04:25:39;;;;;;;;;;;;;;;;;;5053681;28;20025;-60
2023/02/24 04:28:06;;;;;;;27.63;20.05;;;;;;;;;;5053218;28;19999;-60
2023/02/24 04:30:38;;;;;;;29.38;19.65;;;;;;;;;;5035339;28;20025;-63
2023/02/24 04:33:04;;;;;;;32.38;19.98;;;;;;;;;;5052260;28;20509;-63
2023/02/24 04:35:31;;;;;;;30.13;20.27;;;;;;;;;;5052515;28;20033;-63
2023/02/24 04:37:57;;;;;;;35.40;21.25;;;;;;;;;;5053264;28;20445;-60
2023/02/24 04:40:24;;;;;;;32.72;20.17;;;;;;;;;;5035474;28;20037;-63
2023/02/24 04:42:51;;;;;;;27.73;20.13;;;;;;;;;;5053091;28;20426;-61
2023/02/24 04:45:27;;;;;;;33.67;21.73;;;;;;;;;;5052007;28;20090;-63
2023/02/24 04:47:59;;;;;;;32.30;19.90;;;;;;;;;;5052711;28;20025;-62
2023/02/24 04:50:27;;;;;;;23.88;19.48;;;;;;;;;;5052932;28;20017;-63
2023/02/24 04:52:54;;;;;;;29.33;21.53;;;;;;;;;;5053150;28;20033;-61
2023/02/24 04:55:21;;;;;;;27.60;20.08;;;;;;;;;;5034562;28;20025;-58
2023/02/24 04:57:49;;;;;;;27.38;20.13;;;;;;;;;;5052597;28;20492;-62
2023/02/24 05:00:25;;;;;;;26.15;20.25;;;;;;;;;;5052810;28;20025;-62
2023/02/24 05:02:55;;;;;;;29.35;20.48;;;;;;;;;;5034847;28;20028;-62
2023/02/24 05:05:32;;;;;;;33.75;20.85;;;;;;;;;;5052253;28;20482;-61
2023/02/24 05:08:01;;;;;;;29.15;20.27;;;;;;;;;;5052598;28;20017;-58
2023/02/24 05:10:28;;;;;;;31.95;20.58;;;;;;;;;;5050987;28;20013;-61
2023/02/24 05:12:57;;;;;;;28.15;20.85;;;;;;;;;;5051845;28;20048;-58
2023/02/24 05:15:30;;;;;;;27.88;20.08;;;;;;;;;;5047980;28;20049;-60
2023/02/24 05:17:59;;;;;;;30.92;20.98;;;;;;;;;;5033634;28;20017;-63
2023/02/24 05:23:11;;;;;;;24.35;19.40;;;;;;;;;;5031778;28;20398;-62
2023/02/24 05:25:37;;;;;;;29.05;20.35;;;;;;;;;;5032016;28;20021;-64
2023/02/24 05:28:04;;;;;;;30.27;21.15;;;;;;;;;;5047642;28;20072;-59
2023/02/24 05:30:30;;;;;;;34.88;20.50;;;;;;;;;;5052189;28;20021;-62
2023/02/24 05:32:57;;;;;;;29.50;19.92;;;;;;;;;;5051602;28;20032;-60
2023/02/24 05:35:23;;;;;;;27.60;19.75;;;;;;;;;;5051293;28;20032;-63
2023/02/24 05:37:50;;;;;;;31.73;22.65;;;;;;;;;;5052282;28;20021;-61
2023/02/24 05:40:19;;;;;;;27.88;19.90;;;;;;;;;;5051630;28;20370;-61
2023/02/24 05:42:44;;;;;;;;;;;;;;;;;;5034517;28;20039;-62
2023/02/24 05:45:10;;;;;;;27.75;19.05;;;;;;;;;;5032965;28;19995;-63
2023/02/24 05:47:37;;;;;;;30.85;19.33;;;;;;;;;;5051940;28;20036;-64
2023/02/24 05:50:03;;;;;;;27.23;19.40;;;;;;;;;;5051828;28;20142;-61
2023/02/24 05:52:30;;;;;;;29.17;19.55;;;;;;;;;;5033813;28;20025;-62
2023/02/24 05:54:56;;;;;;;31.08;19.98;;;;;;;;;;5032890;28;20491;-64
2023/02/24 05:57:30;;;;;;;26.90;18.85;;;;;;;;;;5033407;28;20028;-63
2023/02/24 05:59:56;;;;;;;25.13;21.00;;;;;;;;;;5051766;28;20402;-64
2023/02/24 06:02:26;;;;;;;25.15;19.10;;;;;;;;;;5033946;28;20120;-59
2023/02/24 06:04:54;;;;;;;29.30;19.50;;;;;;;;;;5033280;28;20036;-62
2023/02/24 06:07:24;;;;;;;32.58;20.42;;;;;;;;;;5034273;28;20132;-63
2023/02/24 06:09:56;;;;;;;34.25;19.40;;;;;;;;;;5051522;28;20017;-63
2023/02/24 06:12:26;;;;;;;25.98;19.27;;;;;;;;;;5051278;28;20040;-61
2023/02/24 06:14:53;;;;;;;24.70;18.65;;;;;;;;;;5050789;28;20020;-62
2023/02/24 06:17:19;;;;;;;29.20;19.08;;;;;;;;;;5033745;28;20469;-62
2023/02/24 06:19:46;;;;;;;24.92;19.60;;;;;;;;;;5032871;28;20120;-61
2023/02/24 06:22:13;;;;;;;27.33;20.17;;;;;;;;;;5033492;28;20060;-61
2023/02/24 06:24:48;;;;;;;24.13;19.85;;;;;;;;;;5050223;28;20025;-60
2023/02/24 06:27:17;;;;;;;22.85;19.42;;;;;;;;;;5033338;28;20452;-63
2023/02/24 06:29:48;;;;;;;23.45;19.60;;;;;;;;;;5051056;28;20033;-59
2023/02/24 06:32:15;;;;;;;27.83;17.95;;;;;;;;;;5050966;28;20072;-60
2023/02/24 06:34:41;;;;;;;19.75;16.75;;;;;;;;;;5032342;28;20032;-61
2023/02/24 06:37:07;;;;;;;26.80;18.52;;;;;;;;;;5054849;22;20071;-64
2023/02/24 06:39:33;;;;;;;28.13;17.65;;;;;;;;;;5031598;28;20424;-64
2023/02/24 06:42:03;;;;;;;30.15;18.50;;;;;;;;;;5031218;28;20029;-64
2023/02/24 06:44:33;;;;;;;20.55;16.35;;;;;;;;;;5048248;28;20619;-63
2023/02/24 06:46:59;;;;;;;26.20;16.80;;;;;;;;;;5049479;28;20431;-65
2023/02/24 06:49:26;;;;;;;22.60;17.00;;;;;;;;;;5031309;28;20029;-65
2023/02/24 06:51:53;;;;;;;27.00;17.00;;;;;;;;;;5049224;28;20496;-64
2023/02/24 06:54:21;;;;;;;24.03;17.50;;;;;;;;;;5048643;28;20028;-66
2023/02/24 06:56:47;;;;;;;24.75;16.92;;;;;;;;;;5031529;28;20032;-64
2023/02/24 06:59:20;;;;;;;30.10;17.40;;;;;;;;;;5049321;28;20028;-64
2023/02/24 07:01:46;;;;;;;27.98;17.40;;;;;;;;;;5031482;28;20052;-60
2023/02/24 07:06:42;;;;;;;24.50;16.73;;;;;;;;;;5048986;28;20025;-65
2023/02/24 07:09:13;;;;;;;23.42;16.67;;;;;;;;;;5032465;28;20032;-65
2023/02/24 07:11:40;;;;;;;23.30;15.88;;;;;;;;;;5052993;28;20028;-65
2023/02/24 07:14:07;;;;;;;26.23;17.13;;;;;;;;;;5034714;28;20025;-65
2023/02/24 07:16:34;;;;;;;22.50;15.85;;;;;;;;;;5034837;28;20028;-65
2023/02/24 07:19:10;;;;;;;21.25;15.27;;;;;;;;;;5034888;28;20478;-63
2023/02/24 07:21:38;;;;;;;26.05;15.77;;;;;;;;;;5052785;28;20489;-66
2023/02/24 07:24:04;;;;;;;25.38;15.02;;;;;;;;;;5052257;28;20086;-65
2023/02/24 07:26:30;;;;;;;22.25;15.60;;;;;;;;;;5034781;28;20041;-65
2023/02/24 07:28:56;;;;;;;24.45;15.23;;;;;;;;;;5052268;28;20040;-66
2023/02/24 07:31:24;;;;;;;26.48;16.40;;;;;;;;;;5052684;28;20029;-65
2023/02/24 07:33:55;;;;;;;21.10;14.15;;;;;;;;;;5052083;28;20055;-66
2023/02/24 07:36:28;;;;;;;24.73;14.55;;;;;;;;;;5052390;28;20029;-64
2023/02/24 07:38:55;;;;;;;22.10;14.65;;;;;;;;;;5052807;28;20116;-65
2023/02/24 07:41:22;;;;;;;21.30;13.27;;;;;;;;;;5052707;28;20037;-63
2023/02/24 07:43:52;;;;;;;23.92;13.30;;;;;;;;;;5051928;28;20095;-65
2023/02/24 07:46:20;;;;;;;21.60;15.25;;;;;;;;;;5052435;28;20070;-66
2023/02/24 07:48:46;;;;;;;20.30;13.45;;;;;;;;;;5052571;28;20053;-64
2023/02/24 07:51:16;;;;;;;22.33;13.00;;;;;;;;;;5052672;28;20051;-65
2023/02/24 07:53:43;;;;;;;21.98;13.00;;;;;;;;;;5033788;28;20021;-66
2023/02/24 07:56:16;;;;;;;17.63;12.45;;;;;;;;;;5053193;28;20071;-66
2023/02/24 07:58:56;;;;;;;24.17;13.50;;;;;;;;;;5056676;28;20022;-64
2023/02/24 08:01:22;;;;;;;22.73;13.75;;;;;;;;;;5037458;28;20033;-64
2023/02/24 08:03:50;;;;;;;18.13;12.38;;;;;;;;;;5052135;28;20155;-62
2023/02/24 08:06:25;;;;;;;26.58;14.63;;;;;;;;;;5052228;28;20481;-63
2023/02/24 08:08:58;;;;;;;20.70;13.05;;;;;;;;;;5034204;28;20113;-66
2023/02/24 08:11:25;;;;;;;21.60;13.65;;;;;;;;;;5034419;28;20512;-65
2023/02/24 08:13:52;;;;;;;20.92;14.73;;;;;;;;;;5051253;28;20029;-65
2023/02/24 08:16:18;;;;;;;19.80;14.65;;;;;;;;;;5051656;28;20021;-65
2023/02/24 08:18:56;;;;;;;24.02;14.05;;;;;;;;;;5034114;28;20378;-64
2023/02/24 08:21:22;;;;;;;22.77;12.77;;;;;;;;;;5052024;28;20029;-63
2023/02/24 08:23:48;;;;;;;28.73;14.00;;;;;;;;;;5051378;28;20029;-64
2023/02/24 08:26:14;;;;;;;21.02;13.10;;;;;;;;;;5051798;28;20037;-65
2023/02/24 08:28:41;;;;;;;20.05;12.75;;;;;;;;;;5033703;28;20033;-64
2023/02/24 08:31:07;;;;;;;23.50;13.57;;;;;;;;;;5051702;28;20021;-65
2023/02/24 08:33:36;;;;;;;20.33;12.48;;;;;;;;;;5050795;28;20466;-64
2023/02/24 08:36:02;;;;;;;20.40;13.85;;;;;;;;;;5051563;28;20037;-63
2023/02/24 08:38:38;;;;;;;24.48;13.40;;;;;;;;;;5051679;28;20021;-64
2023/02/24 08:41:16;;;;;;;20.13;13.68;;;;;;;;;;5051685;28;20033;-67
2023/02/24 08:43:45;;;;;;;21.15;13.05;;;;;;;;;;5051002;28;20048;-66
2023/02/24 08:46:17;;;;;;;20.60;13.35;;;;;;;;;;5033023;28;20033;-66
2023/02/24 08:48:45;;;;;;;18.65;13.70;;;;;;;;;;5051191;28;20478;-62
2023/02/24 08:51:14;;;;;;;22.70;13.35;;;;;;;;;;5033180;28;20078;-60
2023/02/24 08:53:41;;;;;;;21.83;12.60;;;;;;;;;;5050159;28;20422;-60
2023/02/24 08:56:10;;;;;;;17.83;13.02;;;;;;;;;;5051036;28;20488;-57
2023/02/24 08:58:46;;;;;;;18.13;13.60;;;;;;;;;;5051214;28;20400;-60
2023/02/24 09:01:17;;;;;;;19.08;13.02;;;;;;;;;;5051220;28;20034;-61
2023/02/24 09:03:45;;;;;;;19.25;13.05;;;;;;;;;;5032319;28;20059;-61
2023/02/24 09:06:11;;;;;;;23.35;13.50;;;;;;;;;;5050610;28;20520;-61
2023/02/24 09:08:40;;;;;;;20.55;14.35;;;;;;;;;;5050562;28;20533;-61
2023/02/24 09:11:09;;;;;;;;;;;;;;;;;;5051030;28;20078;-60
2023/02/24 09:13:50;;;;;;;27.20;14.13;;;;;;;;;;5050214;28;19919;-63
2023/02/24 09:16:17;;;;;;;20.13;12.77;;;;;;;;;;5033225;28;20434;-65
2023/02/24 09:18:43;;;;;;;25.55;14.23;;;;;;;;;;5032383;28;20108;-62
2023/02/24 09:22:09;;;;;;;;;;;;;;;;;;;;;
2023/02/24 09:23:44;;;;;;;20.50;13.20;;;;;;;;;;5050539;28;20051;-63
2023/02/24 09:26:12;;;;;;;25.33;13.25;;;;;;;;;;5050686;28;20025;-62
2023/02/24 09:28:47;;;;;;;19.75;13.45;;;;;;;;;;5050473;28;20028;-64
2023/02/24 09:31:15;;;;;;;20.80;12.60;;;;;;;;;;5032422;28;20032;-63
2023/02/24 09:33:49;;;;;;;16.60;12.30;;;;;;;;;;5047643;28;20029;-62
2023/02/24 09:36:43;;;;;;;23.70;13.35;;;;;;;;;;5050150;28;20037;-60
2023/02/24 09:44:26;;;;;;;23.17;13.23;;;;;;;;;;5049924;28;20393;-63
2023/02/24 09:46:56;;;;;;;22.17;13.48;;;;;;;;;;5050035;28;20045;-63
2023/02/24 09:49:26;;;;;;;19.75;12.20;;;;;;;;;;5049992;28;20167;-63
2023/02/24 09:51:59;;;;;;;20.95;12.73;;;;;;;;;;5050107;28;20021;-63
2023/02/24 09:54:29;;;;;;;28.10;13.55;;;;;;;;;;5049469;28;20025;-63
2023/02/24 09:57:08;;;;;;;21.13;13.45;;;;;;;;;;5050119;28;20031;-63
2023/02/24 09:59:34;;;;;;;24.92;13.20;;;;;;;;;;5050116;28;20028;-64
2023/02/24 10:02:19;;;;;;;19.08;13.10;;;;;;;;;;5050153;28;20070;-61
2023/02/24 10:04:51;;;;;;;18.83;13.18;;;;;;;;;;5054928;28;20021;-62
2023/02/24 10:07:20;;;;;;;24.55;15.38;;;;;;;;;;5058826;28;20401;-63
2023/02/24 10:09:48;;;;;;;20.23;15.52;;;;;;;;;;5050480;28;20116;-59
2023/02/24 10:12:18;;;;;;;22.60;15.23;;;;;;;;;;5049887;28;20370;-63
2023/02/24 10:15:19;;;;;;;19.25;14.85;;;;;;;;;;5049035;28;20017;-61
2023/02/24 10:17:51;;;;;;;20.33;15.75;;;;;;;;;;5031914;28;20082;-64
2023/02/24 10:20:29;;;;;;;20.95;15.05;;;;;;;;;;5049728;28;20499;-61
2023/02/24 10:23:09;;;;;;;21.73;19.42;;;;;;;;;;5049688;28;20472;-61
2023/02/24 10:25:54;;;;;;;21.70;16.58;;;;;;;;;;5031622;28;20033;-65
2023/02/24 10:28:34;;;;;;;21.98;17.73;;;;;;;;;;5049596;28;20025;-64
2023/02/24 10:31:25;;;;;;;23.42;19.38;;;;;;;;;;5049654;28;20066;-61
2023/02/24 10:33:57;;;;;;;25.25;22.85;;;;;;;;;;5047296;28;20488;-63
2023/02/24 10:36:33;;;;;;;28.08;25.30;;;;;;;;;;5049252;28;20075;-62
2023/02/24 10:39:07;;;;;;;29.88;27.08;;;;;;;;;;5051929;28;20021;-64
2023/02/24 10:41:44;;;;;;;30.48;27.33;;;;;;;;;;5050791;28;20024;-63
2023/02/24 10:44:11;;;;;;;31.92;28.77;;;;;;;;;;5049974;28;20039;-62
2023/02/24 10:46:37;;;;;;;34.47;30.35;;;;;;;;;;5057443;28;20085;-62
2023/02/24 10:49:08;;;;;;;34.45;31.38;;;;;;;;;;5057038;28;20036;-61
2023/02/24 10:51:39;;;;;;;37.67;33.95;;;;;;;;;;5059067;28;20021;-63
2023/02/24 10:54:32;;;;;;;36.45;33.10;;;;;;;;;;5061199;28;20028;-61
2023/02/24 10:57:06;;;;;;;37.90;34.15;;;;;;;;;;5046598;28;20404;-63
2023/02/24 11:02:55;;;;;;;36.00;32.45;;;;;;;;;;5073082;28;20020;-62
2023/02/24 11:05:37;;;;;;;38.25;34.50;;;;;;;;;;5072547;28;20033;-60
2023/02/24 11:08:43;;;;;;;38.88;35.17;;;;;;;;;;5056019;28;20083;-59
2023/02/24 11:11:24;;;;;;;38.92;35.72;;;;;;;;;;5054880;28;20017;-62
2023/02/24 11:19:27;;;;;;;36.97;33.78;;;;;;;;;;5052548;28;20055;-64
2023/02/24 11:21:55;;;;;;;41.35;37.55;;;;;;;;;;5032493;28;20033;-60
2023/02/24 11:24:21;;;;;;;42.20;38.20;;;;;;;;;;5061717;28;20519;-59
2023/02/24 11:26:48;;;;;;;43.05;39.30;;;;;;;;;;5064219;28;20111;-61
2023/02/24 11:29:26;;;;;;;42.22;38.67;;;;;;;;;;5072794;28;20032;-62
2023/02/24 11:31:52;;;;;;;41.08;37.88;;;;;;;;;;5072814;28;20063;-59
2023/02/24 11:34:23;;;;;;;44.85;41.10;;;;;;;;;;5071862;28;20021;-62
2023/02/24 11:37:14;;;;;;;45.95;41.85;;;;;;;;;;5072219;28;20054;-62
2023/02/24 11:39:41;;;;;;;42.20;38.30;;;;;;;;;;5069033;28;20086;-58
2023/02/24 11:42:14;;;;;;;44.20;40.15;;;;;;;;;;5065386;28;20192;-58
2023/02/24 11:44:40;;;;;;;40.95;37.33;;;;;;;;;;5053632;28;20127;-62
2023/02/24 11:47:09;;;;;;;44.00;40.10;;;;;;;;;;5054535;28;20063;-57
2023/02/24 11:50:00;;;;;;;42.13;38.72;;;;;;;;;;5072365;28;20037;-64
2023/02/24 11:52:30;;;;;;;42.83;39.22;;;;;;;;;;5072047;28;20027;-63
2023/02/24 11:54:57;;;;;;;41.35;37.75;;;;;;;;;;5070528;28;20108;-63
2023/02/24 11:57:28;;;;;;;41.45;37.95;;;;;;;;;;5053907;28;20071;-59
2023/02/24 12:00:03;;;;;;;43.67;39.50;;;;;;;;;;5072011;28;20044;-61
2023/02/24 12:02:32;;;;;;;42.00;38.30;;;;;;;;;;5054030;28;20369;-62
2023/02/24 12:05:05;;;;;;;44.05;40.10;;;;;;;;;;5071261;28;20024;-63
2023/02/24 12:07:31;;;;;;;43.35;39.38;;;;;;;;;;5053850;28;20122;-63
2023/02/24 12:10:10;;;;;;;42.30;38.78;;;;;;;;;;5072536;28;20027;-59
2023/02/24 12:12:41;;;;;;;42.67;39.15;;;;;;;;;;5052744;28;20112;-63
2023/02/24 12:15:15;;;;;;;45.15;40.83;;;;;;;;;;5047953;28;20079;-62
2023/02/24 12:17:56;;;;;;;42.63;39.03;;;;;;;;;;5042489;28;20021;-62
2023/02/24 12:20:26;;;;;;;45.08;41.15;;;;;;;;;;5043255;28;20025;-60
2023/02/24 12:22:52;;;;;;;44.10;40.33;;;;;;;;;;5039699;28;20017;-63
2023/02/24 12:25:21;;;;;;;45.67;41.78;;;;;;;;;;5041590;28;20016;-61
2023/02/24 12:28:13;;;;;;;46.75;42.95;;;;;;;;;;5041058;28;20100;-61
2023/02/24 12:31:01;;;;;;;47.65;43.40;;;;;;;;;;5039737;28;20076;-60
2023/02/24 12:33:48;;;;;;;45.65;41.72;;;;;;;;;;5055614;28;20021;-62
2023/02/24 12:36:32;;;;;;;47.00;43.00;;;;;;;;;;5065186;22;20040;-62
2023/02/24 12:39:08;;;;;;;47.30;43.38;;;;;;;;;;5094361;28;20492;-61
2023/02/24 12:41:46;;;;;;;47.60;42.92;;;;;;;;;;5094872;28;20020;-64
2023/02/24 12:44:21;;;;;;;48.00;44.13;;;;;;;;;;5074891;28;20437;-61
2023/02/24 12:46:54;;;;;;;44.50;40.97;;;;;;;;;;5082376;28;20031;-60
2023/02/24 12:49:20;;;;;;;47.20;43.25;;;;;;;;;;5071908;28;20025;-60
2023/02/24 12:51:46;;;;;;;49.22;45.17;;;;;;;;;;5072464;28;20017;-60
2023/02/24 12:54:11;;;;;;;48.80;44.85;;;;;;;;;;5071560;28;20086;-59
2023/02/24 12:56:41;;;;;;;46.30;42.42;;;;;;;;;;5054344;28;20071;-63
2023/02/24 12:59:08;;;;;;;47.33;43.30;;;;;;;;;;5054340;28;20035;-60
2023/02/24 13:01:53;;;;;;;46.47;42.47;;;;;;;;;;5072234;28;20050;-59
2023/02/24 13:04:22;;;;;;;47.47;43.40;;;;;;;;;;5071264;28;20353;-62
2023/02/24 13:07:06;;;;;;;47.47;43.63;;;;;;;;;;5071468;28;20028;-59
2023/02/24 13:09:32;;;;;;;49.55;45.30;;;;;;;;;;5070426;28;20028;-64
2023/02/24 13:12:01;;;;;;;46.67;42.80;;;;;;;;;;5073775;28;20013;-62
2023/02/24 13:14:32;;;;;;;49.70;45.38;;;;;;;;;;5053422;28;20052;-60
2023/02/24 13:17:04;;;;;;;48.00;43.53;;;;;;;;;;5071999;28;20024;-58
2023/02/24 13:19:30;;;;;;;46.53;42.65;;;;;;;;;;5069952;28;20016;-61
2023/02/24 13:22:11;;;;;;;48.60;44.45;;;;;;;;;;5071567;28;20040;-61
2023/02/24 13:24:42;;;;;;;51.00;46.67;;;;;;;;;;5070616;28;20500;-59
2023/02/24 13:27:22;;;;;;;51.17;46.85;;;;;;;;;;5053459;28;20035;-61
2023/02/24 13:29:48;;;;;;;52.05;47.88;;;;;;;;;;5071908;28;20023;-56
2023/02/24 13:32:33;;;;;;;48.13;44.22;;;;;;;;;;5053290;28;20017;-59
2023/02/24 13:35:04;;;;;;;50.30;45.70;;;;;;;;;;5052250;28;20134;-59
2023/02/24 13:37:33;;;;;;;50.60;46.30;;;;;;;;;;5052386;28;20075;-60
2023/02/24 13:40:00;;;;;;;50.50;46.03;;;;;;;;;;5053471;28;20576;-56
2023/02/24 13:42:28;;;;;;;47.83;43.20;;;;;;;;;;5053795;28;20052;-58
2023/02/24 13:45:03;;;;;;;50.58;46.30;;;;;;;;;;5052950;28;20029;-57
2023/02/24 13:47:44;;;;;;;49.00;44.58;;;;;;;;;;5071035;28;20489;-57
2023/02/24 13:50:18;;;;;;;50.08;45.60;;;;;;;;;;5054495;28;20137;-59
2023/02/24 13:52:54;;;;;;;46.58;42.55;;;;;;;;;;5071767;28;20118;-60
2023/02/24 13:55:29;;;;;;;49.33;44.97;;;;;;;;;;5071522;28;20028;-60
2023/02/24 13:57:58;;;;;;;46.00;41.88;;;;;;;;;;5071620;28;20025;-61
2023/02/24 14:00:24;;;;;;;47.20;43.00;;;;;;;;;;5054628;28;20028;-59
2023/02/24 14:02:52;;;;;;;48.15;44.15;;;;;;;;;;5056249;28;20033;-60
2023/02/24 14:05:23;;;;;;;48.85;44.38;;;;;;;;;;5053238;28;20081;-62
2023/02/24 14:07:51;;;;;;;45.20;41.03;;;;;;;;;;5071622;28;20149;-61
2023/02/24 14:10:20;;;;;;;48.50;43.65;;;;;;;;;;5053718;28;20016;-61
2023/02/24 14:12:47;;;;;;;46.88;42.55;;;;;;;;;;5071702;28;20469;-63
2023/02/24 14:15:19;;;;;;;46.58;42.38;;;;;;;;;;5070592;28;20031;-59
2023/02/24 14:17:54;;;;;;;46.55;42.22;;;;;;;;;;5052908;28;20067;-59
2023/02/24 14:20:21;;;;;;;44.75;40.85;;;;;;;;;;5053498;28;20028;-61
2023/02/24 14:22:57;;;;;;;46.20;41.85;;;;;;;;;;5071595;28;20066;-60
2023/02/24 14:25:24;;;;;;;45.42;41.45;;;;;;;;;;5053092;28;20021;-61
2023/02/24 14:27:52;;;;;;;47.65;43.30;;;;;;;;;;5071322;28;20020;-60
2023/02/24 14:30:27;;;;;;;45.15;41.20;;;;;;;;;;5053512;28;20021;-53
2023/02/24 14:32:53;;;;;;;47.30;42.80;;;;;;;;;;5071809;28;20548;-62
2023/02/24 14:35:23;;;;;;;56.55;46.00;;;;;;;;;;5052777;28;20028;-64
2023/02/24 14:37:49;;;;;;;44.50;40.50;;;;;;;;;;5071052;28;20112;-56
2023/02/24 14:40:16;;;;;;;47.42;42.90;;;;;;;;;;5071378;28;20063;-63
2023/02/24 14:42:48;;;;;;;47.35;43.00;;;;;;;;;;5071395;28;20028;-61
2023/02/24 14:45:19;;;;;;;45.10;40.88;;;;;;;;;;5050344;28;20024;-61
2023/02/24 14:47:45;;;;;;;45.85;41.92;;;;;;;;;;5070872;28;20083;-59
2023/02/24 14:50:16;;;;;;;47.40;43.10;;;;;;;;;;5071189;28;20477;-64
2023/02/24 14:52:42;;;;;;;42.88;38.90;;;;;;;;;;5071282;28;20035;-60
2023/02/24 14:55:08;;;;;;;45.08;41.15;;;;;;;;;;5070205;28;20103;-61
2023/02/24 14:57:37;;;;;;;43.95;40.10;;;;;;;;;;5071252;28;20013;-63
2023/02/24 15:00:10;;;;;;;46.45;42.00;;;;;;;;;;5071348;28;20035;-63
2023/02/24 15:02:39;;;;;;;44.83;40.45;;;;;;;;;;5068833;28;20020;-63